sensor_id;sensor_type;location;lat;lon;timestamp;P1;P2;P0
72023;PMS5003;59889;50.700;5.440;2023-11-19T00:01:16;7;6;
72023;PMS5003;59889;50.700;5.440;2023-11-19T00:03:41;6;6;
72023;PMS5003;59889;50.700;5.440;2023-11-19T00:06:06;6;6;
72023;PMS5003;59889;50.700;5.440;2023-11-19T00:08:31;6;6;
72023;PMS5003;59889;50.700;5.440;2023-11-19T00:10:56;6;6;
72023;PMS5003;59889;50.700;5.440;2023-11-19T00:13:21;5;5;
72023;PMS5003;59889;50.700;5.440;2023-11-19T00:15:46;5;5;
72023;PMS5003;59889;50.700;5.440;2023-11-19T00:18:11;5;5;
72023;PMS5003;59889;50.700;5.440;2023-11-19T00:20:36;6;6;
72023;PMS5003;59889;50.700;5.440;2023-11-19T00:23:01;4;4;
72023;PMS5003;59889;50.700;5.440;2023-11-19T00:25:26;6;6;
72023;PMS5003;59889;50.700;5.440;2023-11-19T00:27:51;7;7;
72023;PMS5003;59889;50.700;5.440;2023-11-19T00:30:16;5;5;
72023;PMS5003;59889;50.700;5.440;2023-11-19T00:32:42;5;5;
72023;PMS5003;59889;50.700;5.440;2023-11-19T00:35:07;5;5;
72023;PMS5003;59889;50.700;5.440;2023-11-19T00:37:31;5;5;
72023;PMS5003;59889;50.700;5.440;2023-11-19T00:39:56;6;6;
72023;PMS5003;59889;50.700;5.440;2023-11-19T00:42:22;6;6;
72023;PMS5003;59889;50.700;5.440;2023-11-19T00:44:47;7;7;
72023;PMS5003;59889;50.700;5.440;2023-11-19T00:47:12;6;6;
72023;PMS5003;59889;50.700;5.440;2023-11-19T00:49:37;5;5;
72023;PMS5003;59889;50.700;5.440;2023-11-19T00:52:02;6;6;
72023;PMS5003;59889;50.700;5.440;2023-11-19T00:54:27;8;8;
72023;PMS5003;59889;50.700;5.440;2023-11-19T00:56:52;7;7;
72023;PMS5003;59889;50.700;5.440;2023-11-19T00:59:17;6;6;
72023;PMS5003;59889;50.700;5.440;2023-11-19T01:01:42;8;7;
72023;PMS5003;59889;50.700;5.440;2023-11-19T01:04:07;7;5;
72023;PMS5003;59889;50.700;5.440;2023-11-19T01:06:32;7;7;
72023;PMS5003;59889;50.700;5.440;2023-11-19T01:08:57;5;5;
72023;PMS5003;59889;50.700;5.440;2023-11-19T01:11:22;8;7;
72023;PMS5003;59889;50.700;5.440;2023-11-19T01:13:47;6;6;
72023;PMS5003;59889;50.700;5.440;2023-11-19T01:16:12;6;6;
72023;PMS5003;59889;50.700;5.440;2023-11-19T01:18:37;7;6;
72023;PMS5003;59889;50.700;5.440;2023-11-19T01:21:03;6;6;
72023;PMS5003;59889;50.700;5.440;2023-11-19T01:23:27;6;6;
72023;PMS5003;59889;50.700;5.440;2023-11-19T01:25:52;6;6;
72023;PMS5003;59889;50.700;5.440;2023-11-19T01:28:17;4;4;
72023;PMS5003;59889;50.700;5.440;2023-11-19T01:30:42;5;5;
72023;PMS5003;59889;50.700;5.440;2023-11-19T01:33:07;6;6;
72023;PMS5003;59889;50.700;5.440;2023-11-19T01:35:33;6;6;
72023;PMS5003;59889;50.700;5.440;2023-11-19T01:37:58;5;5;
72023;PMS5003;59889;50.700;5.440;2023-11-19T01:40:23;7;7;
72023;PMS5003;59889;50.700;5.440;2023-11-19T01:42:48;6;6;
72023;PMS5003;59889;50.700;5.440;2023-11-19T01:45:17;6;6;
72023;PMS5003;59889;50.700;5.440;2023-11-19T01:47:38;6;6;
72023;PMS5003;59889;50.700;5.440;2023-11-19T01:50:03;8;8;
72023;PMS5003;59889;50.700;5.440;2023-11-19T01:52:28;6;6;
72023;PMS5003;59889;50.700;5.440;2023-11-19T01:54:53;8;8;
72023;PMS5003;59889;50.700;5.440;2023-11-19T01:57:18;6;6;
72023;PMS5003;59889;50.700;5.440;2023-11-19T01:59:43;4;4;
72023;PMS5003;59889;50.700;5.440;2023-11-19T02:02:08;6;6;
72023;PMS5003;59889;50.700;5.440;2023-11-19T02:04:33;8;8;
72023;PMS5003;59889;50.700;5.440;2023-11-19T02:06:58;6;6;
72023;PMS5003;59889;50.700;5.440;2023-11-19T02:09:23;7;7;
72023;PMS5003;59889;50.700;5.440;2023-11-19T02:11:48;7;7;
72023;PMS5003;59889;50.700;5.440;2023-11-19T02:14:13;5;5;
72023;PMS5003;59889;50.700;5.440;2023-11-19T02:16:38;7;7;
72023;PMS5003;59889;50.700;5.440;2023-11-19T02:19:03;6;6;
72023;PMS5003;59889;50.700;5.440;2023-11-19T02:21:29;6;6;
72023;PMS5003;59889;50.700;5.440;2023-11-19T02:23:54;5;5;
72023;PMS5003;59889;50.700;5.440;2023-11-19T02:26:28;6;6;
72023;PMS5003;59889;50.700;5.440;2023-11-19T02:28:44;7;7;
72023;PMS5003;59889;50.700;5.440;2023-11-19T02:31:09;7;7;
72023;PMS5003;59889;50.700;5.440;2023-11-19T02:33:34;5;5;
72023;PMS5003;59889;50.700;5.440;2023-11-19T02:35:59;6;6;
72023;PMS5003;59889;50.700;5.440;2023-11-19T02:38:24;6;6;
72023;PMS5003;59889;50.700;5.440;2023-11-19T02:40:49;5;5;
72023;PMS5003;59889;50.700;5.440;2023-11-19T02:43:14;5;5;
72023;PMS5003;59889;50.700;5.440;2023-11-19T02:45:39;5;5;
72023;PMS5003;59889;50.700;5.440;2023-11-19T02:48:04;5;5;
72023;PMS5003;59889;50.700;5.440;2023-11-19T02:50:29;6;6;
72023;PMS5003;59889;50.700;5.440;2023-11-19T02:52:55;7;7;
72023;PMS5003;59889;50.700;5.440;2023-11-19T02:55:19;6;6;
72023;PMS5003;59889;50.700;5.440;2023-11-19T02:57:45;5;5;
72023;PMS5003;59889;50.700;5.440;2023-11-19T03:00:10;6;6;
72023;PMS5003;59889;50.700;5.440;2023-11-19T03:02:34;6;6;
72023;PMS5003;59889;50.700;5.440;2023-11-19T03:04:59;7;6;
72023;PMS5003;59889;50.700;5.440;2023-11-19T03:07:24;5;5;
72023;PMS5003;59889;50.700;5.440;2023-11-19T03:09:50;5;5;
72023;PMS5003;59889;50.700;5.440;2023-11-19T03:12:15;5;5;
72023;PMS5003;59889;50.700;5.440;2023-11-19T03:14:40;6;6;
72023;PMS5003;59889;50.700;5.440;2023-11-19T03:17:05;6;6;
72023;PMS5003;59889;50.700;5.440;2023-11-19T03:19:30;5;5;
72023;PMS5003;59889;50.700;5.440;2023-11-19T03:21:55;6;6;
72023;PMS5003;59889;50.700;5.440;2023-11-19T03:24:20;4;4;
72023;PMS5003;59889;50.700;5.440;2023-11-19T03:26:47;5;5;
72023;PMS5003;59889;50.700;5.440;2023-11-19T03:29:10;6;6;
72023;PMS5003;59889;50.700;5.440;2023-11-19T03:31:35;5;5;
72023;PMS5003;59889;50.700;5.440;2023-11-19T03:34:00;5;5;
72023;PMS5003;59889;50.700;5.440;2023-11-19T03:36:25;6;6;
72023;PMS5003;59889;50.700;5.440;2023-11-19T03:38:50;5;5;
72023;PMS5003;59889;50.700;5.440;2023-11-19T03:41:15;5;5;
72023;PMS5003;59889;50.700;5.440;2023-11-19T03:43:40;6;6;
72023;PMS5003;59889;50.700;5.440;2023-11-19T03:48:30;6;6;
72023;PMS5003;59889;50.700;5.440;2023-11-19T03:50:56;7;6;
72023;PMS5003;59889;50.700;5.440;2023-11-19T03:53:20;4;4;
72023;PMS5003;59889;50.700;5.440;2023-11-19T03:55:45;5;5;
72023;PMS5003;59889;50.700;5.440;2023-11-19T03:58:11;5;5;
72023;PMS5003;59889;50.700;5.440;2023-11-19T04:00:36;5;5;
72023;PMS5003;59889;50.700;5.440;2023-11-19T04:03:01;6;5;
72023;PMS5003;59889;50.700;5.440;2023-11-19T04:05:26;7;7;
72023;PMS5003;59889;50.700;5.440;2023-11-19T04:07:51;5;5;
72023;PMS5003;59889;50.700;5.440;2023-11-19T04:10:16;6;6;
72023;PMS5003;59889;50.700;5.440;2023-11-19T04:12:41;5;4;
72023;PMS5003;59889;50.700;5.440;2023-11-19T04:15:06;5;4;
72023;PMS5003;59889;50.700;5.440;2023-11-19T04:17:31;4;4;
72023;PMS5003;59889;50.700;5.440;2023-11-19T04:19:56;5;4;
72023;PMS5003;59889;50.700;5.440;2023-11-19T04:22:21;5;5;
72023;PMS5003;59889;50.700;5.440;2023-11-19T04:24:46;4;4;
72023;PMS5003;59889;50.700;5.440;2023-11-19T04:27:11;4;4;
72023;PMS5003;59889;50.700;5.440;2023-11-19T04:29:36;5;5;
72023;PMS5003;59889;50.700;5.440;2023-11-19T04:32:01;4;4;
72023;PMS5003;59889;50.700;5.440;2023-11-19T04:34:26;4;4;
72023;PMS5003;59889;50.700;5.440;2023-11-19T04:36:51;4;4;
72023;PMS5003;59889;50.700;5.440;2023-11-19T04:39:16;4;4;
72023;PMS5003;59889;50.700;5.440;2023-11-19T04:41:46;5;5;
72023;PMS5003;59889;50.700;5.440;2023-11-19T04:44:07;4;3;
72023;PMS5003;59889;50.700;5.440;2023-11-19T04:46:31;5;5;
72023;PMS5003;59889;50.700;5.440;2023-11-19T04:48:57;5;5;
72023;PMS5003;59889;50.700;5.440;2023-11-19T04:51:22;4;4;
72023;PMS5003;59889;50.700;5.440;2023-11-19T04:53:47;5;5;
72023;PMS5003;59889;50.700;5.440;2023-11-19T04:56:12;3;3;
72023;PMS5003;59889;50.700;5.440;2023-11-19T04:58:37;5;5;
72023;PMS5003;59889;50.700;5.440;2023-11-19T05:01:02;4;4;
72023;PMS5003;59889;50.700;5.440;2023-11-19T05:03:27;4;4;
72023;PMS5003;59889;50.700;5.440;2023-11-19T05:05:52;2;2;
72023;PMS5003;59889;50.700;5.440;2023-11-19T05:08:17;4;4;
72023;PMS5003;59889;50.700;5.440;2023-11-19T05:10:43;5;4;
72023;PMS5003;59889;50.700;5.440;2023-11-19T05:13:07;3;3;
72023;PMS5003;59889;50.700;5.440;2023-11-19T05:15:32;3;3;
72023;PMS5003;59889;50.700;5.440;2023-11-19T05:17:57;4;4;
72023;PMS5003;59889;50.700;5.440;2023-11-19T05:20:22;4;4;
72023;PMS5003;59889;50.700;5.440;2023-11-19T05:22:48;4;4;
72023;PMS5003;59889;50.700;5.440;2023-11-19T05:25:12;4;4;
72023;PMS5003;59889;50.700;5.440;2023-11-19T05:27:37;4;4;
72023;PMS5003;59889;50.700;5.440;2023-11-19T05:30:03;5;5;
72023;PMS5003;59889;50.700;5.440;2023-11-19T05:32:27;4;4;
72023;PMS5003;59889;50.700;5.440;2023-11-19T05:34:53;4;4;
72023;PMS5003;59889;50.700;5.440;2023-11-19T05:37:18;3;3;
72023;PMS5003;59889;50.700;5.440;2023-11-19T05:39:43;4;4;
72023;PMS5003;59889;50.700;5.440;2023-11-19T05:42:08;4;4;
72023;PMS5003;59889;50.700;5.440;2023-11-19T05:44:33;2;2;
72023;PMS5003;59889;50.700;5.440;2023-11-19T05:46:58;3;3;
72023;PMS5003;59889;50.700;5.440;2023-11-19T05:49:23;4;4;
72023;PMS5003;59889;50.700;5.440;2023-11-19T05:51:48;4;4;
72023;PMS5003;59889;50.700;5.440;2023-11-19T05:54:13;5;4;
72023;PMS5003;59889;50.700;5.440;2023-11-19T05:56:38;5;4;
72023;PMS5003;59889;50.700;5.440;2023-11-19T05:59:03;3;3;
72023;PMS5003;59889;50.700;5.440;2023-11-19T06:01:28;2;2;
72023;PMS5003;59889;50.700;5.440;2023-11-19T06:03:53;4;4;
72023;PMS5003;59889;50.700;5.440;2023-11-19T06:06:18;3;2;
72023;PMS5003;59889;50.700;5.440;2023-11-19T06:08:43;3;3;
72023;PMS5003;59889;50.700;5.440;2023-11-19T06:11:09;4;4;
72023;PMS5003;59889;50.700;5.440;2023-11-19T06:13:34;5;4;
72023;PMS5003;59889;50.700;5.440;2023-11-19T06:15:59;4;4;
72023;PMS5003;59889;50.700;5.440;2023-11-19T06:18:24;3;3;
72023;PMS5003;59889;50.700;5.440;2023-11-19T06:20:49;3;3;
72023;PMS5003;59889;50.700;5.440;2023-11-19T06:23:14;4;3;
72023;PMS5003;59889;50.700;5.440;2023-11-19T06:25:39;5;5;
72023;PMS5003;59889;50.700;5.440;2023-11-19T06:28:04;3;3;
72023;PMS5003;59889;50.700;5.440;2023-11-19T06:30:29;5;5;
72023;PMS5003;59889;50.700;5.440;2023-11-19T06:32:54;4;3;
72023;PMS5003;59889;50.700;5.440;2023-11-19T06:35:19;3;3;
72023;PMS5003;59889;50.700;5.440;2023-11-19T06:37:44;4;3;
72023;PMS5003;59889;50.700;5.440;2023-11-19T06:40:10;5;5;
72023;PMS5003;59889;50.700;5.440;2023-11-19T06:42:34;1;1;
72023;PMS5003;59889;50.700;5.440;2023-11-19T06:45:00;4;3;
72023;PMS5003;59889;50.700;5.440;2023-11-19T06:47:25;4;4;
72023;PMS5003;59889;50.700;5.440;2023-11-19T06:49:50;4;4;
72023;PMS5003;59889;50.700;5.440;2023-11-19T06:52:16;4;4;
72023;PMS5003;59889;50.700;5.440;2023-11-19T06:54:40;3;3;
72023;PMS5003;59889;50.700;5.440;2023-11-19T06:57:05;3;3;
72023;PMS5003;59889;50.700;5.440;2023-11-19T06:59:30;4;4;
72023;PMS5003;59889;50.700;5.440;2023-11-19T07:01:55;4;4;
72023;PMS5003;59889;50.700;5.440;2023-11-19T07:04:20;4;3;
72023;PMS5003;59889;50.700;5.440;2023-11-19T07:06:45;4;3;
72023;PMS5003;59889;50.700;5.440;2023-11-19T07:09:10;3;3;
72023;PMS5003;59889;50.700;5.440;2023-11-19T07:11:35;6;5;
72023;PMS5003;59889;50.700;5.440;2023-11-19T07:14:00;5;3;
72023;PMS5003;59889;50.700;5.440;2023-11-19T07:16:25;5;4;
72023;PMS5003;59889;50.700;5.440;2023-11-19T07:18:50;3;3;
72023;PMS5003;59889;50.700;5.440;2023-11-19T07:21:16;8;6;
72023;PMS5003;59889;50.700;5.440;2023-11-19T07:23:41;4;4;
72023;PMS5003;59889;50.700;5.440;2023-11-19T07:26:06;3;2;
72023;PMS5003;59889;50.700;5.440;2023-11-19T07:28:31;2;2;
72023;PMS5003;59889;50.700;5.440;2023-11-19T07:30:56;4;3;
72023;PMS5003;59889;50.700;5.440;2023-11-19T07:33:21;3;2;
72023;PMS5003;59889;50.700;5.440;2023-11-19T07:35:46;3;3;
72023;PMS5003;59889;50.700;5.440;2023-11-19T07:38:12;3;3;
72023;PMS5003;59889;50.700;5.440;2023-11-19T07:40:36;3;3;
72023;PMS5003;59889;50.700;5.440;2023-11-19T07:43:01;7;5;
72023;PMS5003;59889;50.700;5.440;2023-11-19T07:45:26;4;3;
72023;PMS5003;59889;50.700;5.440;2023-11-19T07:47:51;6;4;
72023;PMS5003;59889;50.700;5.440;2023-11-19T07:50:16;2;2;
72023;PMS5003;59889;50.700;5.440;2023-11-19T07:52:42;7;6;
72023;PMS5003;59889;50.700;5.440;2023-11-19T07:55:08;2;2;
72023;PMS5003;59889;50.700;5.440;2023-11-19T07:57:32;3;3;
72023;PMS5003;59889;50.700;5.440;2023-11-19T07:59:57;6;4;
72023;PMS5003;59889;50.700;5.440;2023-11-19T08:02:22;4;3;
72023;PMS5003;59889;50.700;5.440;2023-11-19T08:04:47;4;4;
72023;PMS5003;59889;50.700;5.440;2023-11-19T08:07:12;6;4;
72023;PMS5003;59889;50.700;5.440;2023-11-19T08:09:38;5;3;
72023;PMS5003;59889;50.700;5.440;2023-11-19T08:12:03;4;4;
72023;PMS5003;59889;50.700;5.440;2023-11-19T08:14:28;4;3;
72023;PMS5003;59889;50.700;5.440;2023-11-19T08:16:53;3;3;
72023;PMS5003;59889;50.700;5.440;2023-11-19T08:19:18;4;3;
72023;PMS5003;59889;50.700;5.440;2023-11-19T08:21:43;4;3;
72023;PMS5003;59889;50.700;5.440;2023-11-19T08:24:08;6;4;
72023;PMS5003;59889;50.700;5.440;2023-11-19T08:26:34;4;2;
72023;PMS5003;59889;50.700;5.440;2023-11-19T08:28:59;3;3;
72023;PMS5003;59889;50.700;5.440;2023-11-19T08:31:24;3;3;
72023;PMS5003;59889;50.700;5.440;2023-11-19T08:33:49;4;3;
72023;PMS5003;59889;50.700;5.440;2023-11-19T08:36:15;7;5;
72023;PMS5003;59889;50.700;5.440;2023-11-19T08:38:39;1;1;
72023;PMS5003;59889;50.700;5.440;2023-11-19T08:41:04;4;3;
72023;PMS5003;59889;50.700;5.440;2023-11-19T08:43:29;4;3;
72023;PMS5003;59889;50.700;5.440;2023-11-19T08:45:54;5;4;
72023;PMS5003;59889;50.700;5.440;2023-11-19T08:48:19;4;4;
72023;PMS5003;59889;50.700;5.440;2023-11-19T08:50:44;4;3;
72023;PMS5003;59889;50.700;5.440;2023-11-19T08:53:09;4;3;
72023;PMS5003;59889;50.700;5.440;2023-11-19T08:55:34;3;2;
72023;PMS5003;59889;50.700;5.440;2023-11-19T08:57:59;2;2;
72023;PMS5003;59889;50.700;5.440;2023-11-19T09:00:25;4;3;
72023;PMS5003;59889;50.700;5.440;2023-11-19T09:02:50;3;3;
72023;PMS5003;59889;50.700;5.440;2023-11-19T09:05:16;9;5;
72023;PMS5003;59889;50.700;5.440;2023-11-19T09:07:41;3;3;
72023;PMS5003;59889;50.700;5.440;2023-11-19T09:10:06;6;4;
72023;PMS5003;59889;50.700;5.440;2023-11-19T09:12:31;6;4;
72023;PMS5003;59889;50.700;5.440;2023-11-19T09:14:56;3;3;
72023;PMS5003;59889;50.700;5.440;2023-11-19T09:17:21;3;2;
72023;PMS5003;59889;50.700;5.440;2023-11-19T09:19:46;3;3;
72023;PMS5003;59889;50.700;5.440;2023-11-19T09:22:11;4;3;
72023;PMS5003;59889;50.700;5.440;2023-11-19T09:24:37;7;4;
72023;PMS5003;59889;50.700;5.440;2023-11-19T09:27:02;2;2;
72023;PMS5003;59889;50.700;5.440;2023-11-19T09:29:27;3;3;
72023;PMS5003;59889;50.700;5.440;2023-11-19T09:31:52;2;2;
72023;PMS5003;59889;50.700;5.440;2023-11-19T09:34:17;4;3;
72023;PMS5003;59889;50.700;5.440;2023-11-19T09:36:42;2;2;
72023;PMS5003;59889;50.700;5.440;2023-11-19T09:39:07;7;2;
72023;PMS5003;59889;50.700;5.440;2023-11-19T09:41:32;5;3;
72023;PMS5003;59889;50.700;5.440;2023-11-19T09:43:57;5;3;
72023;PMS5003;59889;50.700;5.440;2023-11-19T09:46:22;2;2;
72023;PMS5003;59889;50.700;5.440;2023-11-19T09:48:47;5;3;
72023;PMS5003;59889;50.700;5.440;2023-11-19T09:51:12;3;2;
72023;PMS5003;59889;50.700;5.440;2023-11-19T09:53:37;3;2;
72023;PMS5003;59889;50.700;5.440;2023-11-19T09:56:02;2;2;
72023;PMS5003;59889;50.700;5.440;2023-11-19T09:58:27;2;2;
72023;PMS5003;59889;50.700;5.440;2023-11-19T10:00:52;2;2;
72023;PMS5003;59889;50.700;5.440;2023-11-19T10:03:17;4;3;
72023;PMS5003;59889;50.700;5.440;2023-11-19T10:05:42;5;4;
72023;PMS5003;59889;50.700;5.440;2023-11-19T10:08:07;4;3;
72023;PMS5003;59889;50.700;5.440;2023-11-19T10:10:32;2;2;
72023;PMS5003;59889;50.700;5.440;2023-11-19T10:12:57;3;2;
72023;PMS5003;59889;50.700;5.440;2023-11-19T10:15:23;2;2;
72023;PMS5003;59889;50.700;5.440;2023-11-19T10:17:47;4;4;
72023;PMS5003;59889;50.700;5.440;2023-11-19T10:20:12;2;2;
72023;PMS5003;59889;50.700;5.440;2023-11-19T10:22:37;1;1;
72023;PMS5003;59889;50.700;5.440;2023-11-19T10:25:03;4;4;
72023;PMS5003;59889;50.700;5.440;2023-11-19T10:27:27;6;3;
72023;PMS5003;59889;50.700;5.440;2023-11-19T10:29:52;2;2;
72023;PMS5003;59889;50.700;5.440;2023-11-19T10:32:17;4;4;
72023;PMS5003;59889;50.700;5.440;2023-11-19T10:34:43;2;2;
72023;PMS5003;59889;50.700;5.440;2023-11-19T10:37:08;2;2;
72023;PMS5003;59889;50.700;5.440;2023-11-19T10:41:58;3;2;
72023;PMS5003;59889;50.700;5.440;2023-11-19T10:44:31;2;2;
72023;PMS5003;59889;50.700;5.440;2023-11-19T10:46:48;2;2;
72023;PMS5003;59889;50.700;5.440;2023-11-19T10:49:13;3;2;
72023;PMS5003;59889;50.700;5.440;2023-11-19T10:51:39;2;2;
72023;PMS5003;59889;50.700;5.440;2023-11-19T10:54:04;2;1;
72023;PMS5003;59889;50.700;5.440;2023-11-19T10:56:29;1;1;
72023;PMS5003;59889;50.700;5.440;2023-11-19T10:58:53;3;2;
72023;PMS5003;59889;50.700;5.440;2023-11-19T11:01:19;3;2;
72023;PMS5003;59889;50.700;5.440;2023-11-19T11:03:43;3;2;
72023;PMS5003;59889;50.700;5.440;2023-11-19T11:06:08;4;3;
72023;PMS5003;59889;50.700;5.440;2023-11-19T11:08:34;3;3;
72023;PMS5003;59889;50.700;5.440;2023-11-19T11:10:58;3;3;
72023;PMS5003;59889;50.700;5.440;2023-11-19T11:13:23;2;1;
72023;PMS5003;59889;50.700;5.440;2023-11-19T11:15:48;1;0;
72023;PMS5003;59889;50.700;5.440;2023-11-19T11:18:13;4;4;
72023;PMS5003;59889;50.700;5.440;2023-11-19T11:20:38;2;2;
72023;PMS5003;59889;50.700;5.440;2023-11-19T11:23:21;2;2;
72023;PMS5003;59889;50.700;5.440;2023-11-19T11:25:31;3;3;
72023;PMS5003;59889;50.700;5.440;2023-11-19T11:27:58;3;2;
72023;PMS5003;59889;50.700;5.440;2023-11-19T11:30:22;1;1;
72023;PMS5003;59889;50.700;5.440;2023-11-19T11:32:44;2;1;
72023;PMS5003;59889;50.700;5.440;2023-11-19T11:35:14;3;3;
72023;PMS5003;59889;50.700;5.440;2023-11-19T11:37:34;2;2;
72023;PMS5003;59889;50.700;5.440;2023-11-19T11:39:58;2;2;
72023;PMS5003;59889;50.700;5.440;2023-11-19T11:42:32;2;2;
72023;PMS5003;59889;50.700;5.440;2023-11-19T11:47:14;3;3;
72023;PMS5003;59889;50.700;5.440;2023-11-19T11:49:38;2;2;
72023;PMS5003;59889;50.700;5.440;2023-11-19T11:52:04;4;3;
72023;PMS5003;59889;50.700;5.440;2023-11-19T11:54:29;2;2;
72023;PMS5003;59889;50.700;5.440;2023-11-19T11:59:19;4;3;
72023;PMS5003;59889;50.700;5.440;2023-11-19T12:04:09;2;1;
72023;PMS5003;59889;50.700;5.440;2023-11-19T12:06:34;3;2;
72023;PMS5003;59889;50.700;5.440;2023-11-19T12:08:59;4;3;
72023;PMS5003;59889;50.700;5.440;2023-11-19T12:11:24;2;2;
72023;PMS5003;59889;50.700;5.440;2023-11-19T12:13:53;3;3;
72023;PMS5003;59889;50.700;5.440;2023-11-19T12:16:14;3;2;
72023;PMS5003;59889;50.700;5.440;2023-11-19T12:18:39;3;3;
72023;PMS5003;59889;50.700;5.440;2023-11-19T12:21:04;4;3;
72023;PMS5003;59889;50.700;5.440;2023-11-19T12:23:29;6;3;
72023;PMS5003;59889;50.700;5.440;2023-11-19T12:25:54;2;2;
72023;PMS5003;59889;50.700;5.440;2023-11-19T12:28:19;2;2;
72023;PMS5003;59889;50.700;5.440;2023-11-19T12:30:44;1;1;
72023;PMS5003;59889;50.700;5.440;2023-11-19T12:33:09;4;3;
72023;PMS5003;59889;50.700;5.440;2023-11-19T12:35:36;3;3;
72023;PMS5003;59889;50.700;5.440;2023-11-19T12:37:59;2;2;
72023;PMS5003;59889;50.700;5.440;2023-11-19T12:40:25;3;3;
72023;PMS5003;59889;50.700;5.440;2023-11-19T12:42:50;5;4;
72023;PMS5003;59889;50.700;5.440;2023-11-19T12:45:15;1;1;
72023;PMS5003;59889;50.700;5.440;2023-11-19T12:47:40;3;2;
72023;PMS5003;59889;50.700;5.440;2023-11-19T12:50:05;3;2;
72023;PMS5003;59889;50.700;5.440;2023-11-19T12:52:30;3;3;
72023;PMS5003;59889;50.700;5.440;2023-11-19T12:54:55;3;3;
72023;PMS5003;59889;50.700;5.440;2023-11-19T12:57:20;3;2;
72023;PMS5003;59889;50.700;5.440;2023-11-19T13:02:10;3;2;
72023;PMS5003;59889;50.700;5.440;2023-11-19T13:04:35;3;3;
72023;PMS5003;59889;50.700;5.440;2023-11-19T13:07:00;2;1;
72023;PMS5003;59889;50.700;5.440;2023-11-19T13:09:26;3;2;
72023;PMS5003;59889;50.700;5.440;2023-11-19T13:11:50;1;1;
72023;PMS5003;59889;50.700;5.440;2023-11-19T13:14:15;2;2;
72023;PMS5003;59889;50.700;5.440;2023-11-19T13:16:40;2;1;
72023;PMS5003;59889;50.700;5.440;2023-11-19T13:19:05;2;2;
72023;PMS5003;59889;50.700;5.440;2023-11-19T13:21:30;5;3;
72023;PMS5003;59889;50.700;5.440;2023-11-19T13:23:56;2;2;
72023;PMS5003;59889;50.700;5.440;2023-11-19T13:26:20;2;2;
72023;PMS5003;59889;50.700;5.440;2023-11-19T13:28:45;5;3;
72023;PMS5003;59889;50.700;5.440;2023-11-19T13:31:10;2;1;
72023;PMS5003;59889;50.700;5.440;2023-11-19T13:33:36;2;2;
72023;PMS5003;59889;50.700;5.440;2023-11-19T13:36:01;3;3;
72023;PMS5003;59889;50.700;5.440;2023-11-19T13:38:26;4;3;
72023;PMS5003;59889;50.700;5.440;2023-11-19T13:40:51;4;3;
72023;PMS5003;59889;50.700;5.440;2023-11-19T13:43:16;4;3;
72023;PMS5003;59889;50.700;5.440;2023-11-19T13:45:41;1;1;
72023;PMS5003;59889;50.700;5.440;2023-11-19T13:48:06;3;2;
72023;PMS5003;59889;50.700;5.440;2023-11-19T13:50:31;1;1;
72023;PMS5003;59889;50.700;5.440;2023-11-19T13:52:56;4;4;
72023;PMS5003;59889;50.700;5.440;2023-11-19T13:55:21;1;1;
72023;PMS5003;59889;50.700;5.440;2023-11-19T13:57:46;2;1;
72023;PMS5003;59889;50.700;5.440;2023-11-19T14:00:11;2;2;
72023;PMS5003;59889;50.700;5.440;2023-11-19T14:02:36;3;2;
72023;PMS5003;59889;50.700;5.440;2023-11-19T14:05:02;2;2;
72023;PMS5003;59889;50.700;5.440;2023-11-19T14:07:26;2;2;
72023;PMS5003;59889;50.700;5.440;2023-11-19T14:09:51;2;2;
72023;PMS5003;59889;50.700;5.440;2023-11-19T14:12:16;2;1;
72023;PMS5003;59889;50.700;5.440;2023-11-19T14:14:41;1;1;
72023;PMS5003;59889;50.700;5.440;2023-11-19T14:17:06;2;2;
72023;PMS5003;59889;50.700;5.440;2023-11-19T14:19:31;3;3;
72023;PMS5003;59889;50.700;5.440;2023-11-19T14:21:56;1;1;
72023;PMS5003;59889;50.700;5.440;2023-11-19T14:24:21;2;2;
72023;PMS5003;59889;50.700;5.440;2023-11-19T14:26:46;2;2;
72023;PMS5003;59889;50.700;5.440;2023-11-19T14:29:12;2;2;
72023;PMS5003;59889;50.700;5.440;2023-11-19T14:31:37;3;3;
72023;PMS5003;59889;50.700;5.440;2023-11-19T14:34:02;3;2;
72023;PMS5003;59889;50.700;5.440;2023-11-19T14:36:27;2;1;
72023;PMS5003;59889;50.700;5.440;2023-11-19T14:38:52;2;2;
72023;PMS5003;59889;50.700;5.440;2023-11-19T14:41:17;2;2;
72023;PMS5003;59889;50.700;5.440;2023-11-19T14:43:42;2;1;
72023;PMS5003;59889;50.700;5.440;2023-11-19T14:46:07;3;3;
72023;PMS5003;59889;50.700;5.440;2023-11-19T14:48:32;2;2;
72023;PMS5003;59889;50.700;5.440;2023-11-19T14:50:57;3;2;
72023;PMS5003;59889;50.700;5.440;2023-11-19T14:53:22;2;2;
72023;PMS5003;59889;50.700;5.440;2023-11-19T14:55:47;2;2;
72023;PMS5003;59889;50.700;5.440;2023-11-19T14:58:12;1;1;
72023;PMS5003;59889;50.700;5.440;2023-11-19T15:00:38;2;2;
72023;PMS5003;59889;50.700;5.440;2023-11-19T15:03:03;4;3;
72023;PMS5003;59889;50.700;5.440;2023-11-19T15:05:28;1;1;
72023;PMS5003;59889;50.700;5.440;2023-11-19T15:07:53;3;1;
72023;PMS5003;59889;50.700;5.440;2023-11-19T15:10:18;3;1;
72023;PMS5003;59889;50.700;5.440;2023-11-19T15:12:43;4;3;
72023;PMS5003;59889;50.700;5.440;2023-11-19T15:15:09;2;2;
72023;PMS5003;59889;50.700;5.440;2023-11-19T15:17:33;2;2;
72023;PMS5003;59889;50.700;5.440;2023-11-19T15:19:58;2;1;
72023;PMS5003;59889;50.700;5.440;2023-11-19T15:22:23;4;2;
72023;PMS5003;59889;50.700;5.440;2023-11-19T15:24:48;5;2;
72023;PMS5003;59889;50.700;5.440;2023-11-19T15:27:13;2;2;
72023;PMS5003;59889;50.700;5.440;2023-11-19T15:29:39;1;1;
72023;PMS5003;59889;50.700;5.440;2023-11-19T15:32:03;3;2;
72023;PMS5003;59889;50.700;5.440;2023-11-19T15:34:28;2;1;
72023;PMS5003;59889;50.700;5.440;2023-11-19T15:36:53;1;0;
72023;PMS5003;59889;50.700;5.440;2023-11-19T15:39:18;2;2;
72023;PMS5003;59889;50.700;5.440;2023-11-19T15:41:43;2;1;
72023;PMS5003;59889;50.700;5.440;2023-11-19T15:44:08;4;3;
72023;PMS5003;59889;50.700;5.440;2023-11-19T15:46:33;0;0;
72023;PMS5003;59889;50.700;5.440;2023-11-19T15:48:58;3;2;
72023;PMS5003;59889;50.700;5.440;2023-11-19T15:51:23;2;1;
72023;PMS5003;59889;50.700;5.440;2023-11-19T15:53:48;2;2;
72023;PMS5003;59889;50.700;5.440;2023-11-19T15:56:13;2;2;
72023;PMS5003;59889;50.700;5.440;2023-11-19T15:58:38;2;2;
72023;PMS5003;59889;50.700;5.440;2023-11-19T16:01:04;2;2;
72023;PMS5003;59889;50.700;5.440;2023-11-19T16:03:28;3;1;
72023;PMS5003;59889;50.700;5.440;2023-11-19T16:05:53;3;2;
72023;PMS5003;59889;50.700;5.440;2023-11-19T16:08:18;0;0;
72023;PMS5003;59889;50.700;5.440;2023-11-19T16:10:44;2;1;
72023;PMS5003;59889;50.700;5.440;2023-11-19T16:13:09;1;1;
72023;PMS5003;59889;50.700;5.440;2023-11-19T16:15:34;3;2;
72023;PMS5003;59889;50.700;5.440;2023-11-19T16:17:59;1;1;
72023;PMS5003;59889;50.700;5.440;2023-11-19T16:20:24;3;2;
72023;PMS5003;59889;50.700;5.440;2023-11-19T16:22:49;2;2;
72023;PMS5003;59889;50.700;5.440;2023-11-19T16:25:14;2;2;
72023;PMS5003;59889;50.700;5.440;2023-11-19T16:27:39;2;2;
72023;PMS5003;59889;50.700;5.440;2023-11-19T16:30:04;4;3;
72023;PMS5003;59889;50.700;5.440;2023-11-19T16:32:29;1;1;
72023;PMS5003;59889;50.700;5.440;2023-11-19T16:34:54;2;2;
72023;PMS5003;59889;50.700;5.440;2023-11-19T16:37:19;2;1;
72023;PMS5003;59889;50.700;5.440;2023-11-19T16:39:44;2;2;
72023;PMS5003;59889;50.700;5.440;2023-11-19T16:42:09;1;1;
72023;PMS5003;59889;50.700;5.440;2023-11-19T16:44:34;1;1;
72023;PMS5003;59889;50.700;5.440;2023-11-19T16:47:00;2;2;
72023;PMS5003;59889;50.700;5.440;2023-11-19T16:49:25;3;3;